createdAt,value
2019-01-17T00:00:55.800Z,6.50
2019-01-17T00:01:55.672Z,6.52
2019-01-17T00:02:55.669Z,6.44
2019-01-17T00:03:55.556Z,6.41
2019-01-17T00:04:55.553Z,6.47
2019-01-17T00:05:55.555Z,6.52
2019-01-17T00:06:55.428Z,6.47
2019-01-17T00:07:55.428Z,6.57
2019-01-17T00:08:55.318Z,6.56
2019-01-17T00:09:55.307Z,6.53
2019-01-17T00:10:55.307Z,6.50
2019-01-17T00:11:55.194Z,6.57
2019-01-17T00:12:55.188Z,6.53
2019-01-17T00:13:55.076Z,6.54
2019-01-17T00:14:55.068Z,6.57
2019-01-17T00:15:55.029Z,6.54
2019-01-17T00:16:54.947Z,6.52
2019-01-17T00:17:54.946Z,6.54
2019-01-17T00:18:54.832Z,6.54
2019-01-17T00:19:54.832Z,6.54
2019-01-17T00:20:54.716Z,6.50
2019-01-17T00:21:54.712Z,6.54
2019-01-17T00:22:54.709Z,6.57
2019-01-17T00:23:54.590Z,6.57
2019-01-17T00:24:54.589Z,6.49
2019-01-17T00:25:54.466Z,6.53
2019-01-17T00:26:54.467Z,6.57
2019-01-17T00:27:54.471Z,6.53
2019-01-17T00:28:54.350Z,6.56
2019-01-17T00:29:54.352Z,6.60
2019-01-17T00:30:54.230Z,6.50
2019-01-17T00:31:54.225Z,6.54
2019-01-17T00:32:54.231Z,6.52
2019-01-17T00:33:54.110Z,6.47
2019-01-17T00:34:54.113Z,6.50
2019-01-17T00:35:54.065Z,6.49
2019-01-17T00:36:53.989Z,6.54
2019-01-17T00:37:53.982Z,6.39
2019-01-17T00:38:53.864Z,6.50
2019-01-17T00:39:53.866Z,6.49
2019-01-17T00:40:53.749Z,6.46
2019-01-17T00:41:53.745Z,6.39
2019-01-17T00:42:53.706Z,6.46
2019-01-17T00:43:53.632Z,6.41
2019-01-17T00:44:53.627Z,6.41
2019-01-17T00:45:53.517Z,6.47
2019-01-17T00:46:53.501Z,6.39
2019-01-17T00:47:53.381Z,6.47
2019-01-17T00:48:53.382Z,6.43
2019-01-17T00:49:53.379Z,6.39
2019-01-17T00:50:53.268Z,6.41
2019-01-17T00:51:53.264Z,6.44
2019-01-17T00:52:53.146Z,6.41
2019-01-17T00:53:53.140Z,6.41
2019-01-17T00:54:53.142Z,6.41
2019-01-17T00:55:53.020Z,6.36
2019-01-17T00:56:53.029Z,6.43
2019-01-17T00:57:52.901Z,6.43
2019-01-17T00:58:52.902Z,6.34
2019-01-17T00:59:52.863Z,6.34
2019-01-17T01:00:52.779Z,6.34
2019-01-17T01:01:52.782Z,6.31
2019-01-17T01:02:52.661Z,6.28
2019-01-17T01:03:52.660Z,6.34
2019-01-17T01:04:52.535Z,6.34
2019-01-17T01:05:52.543Z,6.32
2019-01-17T01:06:52.548Z,6.26
2019-01-17T01:07:52.421Z,6.34
2019-01-17T01:08:52.418Z,6.29
2019-01-17T01:09:52.301Z,6.26
2019-01-17T01:10:52.305Z,6.29
2019-01-17T01:11:52.311Z,6.28
2019-01-17T01:12:52.174Z,6.25
2019-01-17T01:13:52.178Z,6.34
2019-01-17T01:14:52.062Z,6.34
2019-01-17T01:15:52.060Z,6.34
2019-01-17T01:16:52.061Z,6.35
2019-01-17T01:17:51.940Z,6.34
2019-01-17T01:18:51.940Z,6.25
2019-01-17T01:19:51.815Z,6.32
2019-01-17T01:20:51.822Z,6.29
2019-01-17T01:21:51.786Z,6.35
2019-01-17T01:22:51.694Z,6.31
2019-01-17T01:23:51.710Z,6.31
2019-01-17T01:24:51.588Z,6.35
2019-01-17T01:25:51.574Z,6.39
2019-01-17T01:26:51.453Z,6.35
2019-01-17T01:27:51.453Z,6.36
2019-01-17T01:28:51.455Z,6.39
2019-01-17T01:29:51.340Z,6.41
2019-01-17T01:30:51.331Z,6.36
2019-01-17T01:31:51.222Z,6.41
2019-01-17T01:32:51.210Z,6.39
2019-01-17T01:33:51.212Z,6.38
2019-01-17T01:34:51.093Z,6.35
2019-01-17T01:35:51.091Z,6.43
2019-01-17T01:36:50.971Z,6.43
2019-01-17T01:37:50.971Z,6.47
2019-01-17T01:38:50.981Z,6.43
2019-01-17T01:39:50.862Z,6.43
2019-01-17T01:40:50.864Z,6.46
2019-01-17T01:41:50.746Z,6.49
2019-01-17T01:42:50.736Z,6.50
2019-01-17T01:43:50.625Z,6.38
2019-01-17T01:44:50.610Z,6.52
2019-01-17T01:45:50.610Z,6.53
2019-01-17T01:46:50.500Z,6.53
2019-01-17T01:47:50.492Z,6.54
2019-01-17T01:48:50.369Z,6.54
2019-01-17T01:49:50.370Z,6.57
2019-01-17T01:50:50.371Z,6.57
2019-01-17T01:51:50.252Z,6.56
2019-01-17T01:52:50.251Z,6.59
2019-01-17T01:53:50.136Z,6.56
2019-01-17T01:54:50.126Z,6.52
2019-01-17T01:55:50.130Z,6.57
2019-01-17T01:56:50.009Z,6.54
2019-01-17T01:57:50.015Z,6.56
2019-01-17T01:58:49.888Z,6.50
2019-01-17T01:59:49.892Z,6.60
2019-01-17T02:00:49.888Z,6.49
2019-01-17T02:01:49.769Z,6.53
2019-01-17T02:02:49.771Z,6.56
2019-01-17T02:03:49.649Z,6.54
2019-01-17T02:04:49.651Z,6.54
2019-01-17T02:05:49.608Z,6.53
2019-01-17T02:06:49.541Z,6.50
2019-01-17T02:07:49.533Z,6.54
2019-01-17T02:08:49.404Z,6.53
2019-01-17T02:09:49.403Z,6.54
2019-01-17T02:10:49.365Z,6.53
2019-01-17T02:11:49.297Z,6.52
2019-01-17T02:12:49.297Z,6.52
2019-01-17T02:13:49.166Z,6.50
2019-01-17T02:14:49.164Z,6.52
2019-01-17T02:15:49.046Z,6.52
2019-01-17T02:16:49.045Z,6.60
2019-01-17T02:17:49.046Z,6.49
2019-01-17T02:18:48.929Z,6.59
2019-01-17T02:19:48.929Z,6.57
2019-01-17T02:20:48.801Z,6.54
2019-01-17T02:21:48.801Z,6.56
2019-01-17T02:22:48.805Z,6.54
2019-01-17T02:23:48.681Z,6.52
2019-01-17T02:24:48.692Z,6.53
2019-01-17T02:25:48.561Z,6.64
2019-01-17T02:26:48.561Z,6.59
2019-01-17T02:27:48.565Z,6.49
2019-01-17T02:28:48.439Z,6.56
2019-01-17T02:29:48.443Z,6.52
2019-01-17T02:30:48.319Z,6.52
2019-01-17T02:31:48.325Z,6.59
2019-01-17T02:32:48.209Z,6.52
2019-01-17T02:33:48.201Z,6.57
2019-01-17T02:34:48.210Z,6.54
2019-01-17T02:35:48.079Z,6.59
2019-01-17T02:36:48.085Z,6.49
2019-01-17T02:37:47.958Z,6.57
2019-01-17T02:38:47.957Z,6.47
2019-01-17T02:39:47.957Z,6.52
2019-01-17T02:40:47.846Z,6.44
2019-01-17T02:41:47.838Z,6.57
2019-01-17T02:42:47.799Z,6.56
2019-01-17T02:43:47.730Z,6.50
2019-01-17T02:44:47.728Z,6.46
2019-01-17T02:45:47.596Z,6.54
2019-01-17T02:46:47.597Z,6.53
2019-01-17T02:47:47.476Z,6.54
2019-01-17T02:48:47.484Z,6.54
2019-01-17T02:49:47.482Z,6.56
2019-01-17T02:50:47.369Z,6.54
2019-01-17T02:51:47.356Z,6.57
2019-01-17T02:52:47.242Z,6.54
2019-01-17T02:53:47.244Z,6.53
2019-01-17T02:54:47.232Z,6.56
2019-01-17T02:55:47.116Z,6.50
2019-01-17T02:56:47.119Z,6.57
2019-01-17T02:57:47.000Z,6.57
2019-01-17T02:58:47.011Z,6.44
2019-01-17T02:59:46.877Z,6.49
2019-01-17T03:00:46.873Z,6.50
2019-01-17T03:01:46.874Z,6.39
2019-01-17T03:02:46.754Z,6.52
2019-01-17T03:03:46.868Z,6.49
2019-01-17T03:04:46.842Z,6.52
2019-01-17T03:05:46.746Z,6.56
2019-01-17T03:06:46.752Z,6.44
2019-01-17T03:07:46.510Z,6.47
2019-01-17T03:08:46.514Z,6.53
2019-01-17T03:09:46.394Z,6.43
2019-01-17T03:10:46.396Z,6.49
2019-01-17T03:11:46.394Z,6.52
2019-01-17T03:12:46.271Z,6.44
2019-01-17T03:13:46.270Z,6.52
2019-01-17T03:14:46.150Z,6.47
2019-01-17T03:15:46.150Z,6.46
2019-01-17T03:16:46.151Z,6.52
2019-01-17T03:17:46.033Z,6.50
2019-01-17T03:18:46.033Z,6.49
2019-01-17T03:19:45.909Z,6.49
2019-01-17T03:20:45.909Z,6.50
2019-01-17T03:21:45.908Z,6.57
2019-01-17T03:22:45.795Z,6.49
2019-01-17T03:23:45.791Z,6.54
2019-01-17T03:24:45.678Z,6.49
2019-01-17T03:25:45.668Z,6.57
2019-01-17T03:26:45.628Z,6.54
2019-01-17T03:27:45.546Z,6.52
2019-01-17T03:28:45.550Z,6.57
2019-01-17T03:29:45.434Z,6.46
2019-01-17T03:30:45.428Z,6.49
2019-01-17T03:31:45.307Z,6.54
2019-01-17T03:32:45.308Z,6.54
2019-01-17T03:33:45.309Z,6.52
2019-01-17T03:34:45.188Z,6.53
2019-01-17T03:35:45.185Z,6.54
2019-01-17T03:36:45.070Z,6.54
2019-01-17T03:37:45.076Z,6.59
2019-01-17T03:38:45.066Z,6.50
2019-01-17T03:39:44.943Z,6.50
2019-01-17T03:40:44.949Z,6.52
2019-01-17T03:41:44.825Z,6.54
2019-01-17T03:42:44.839Z,6.56
2019-01-17T03:43:44.830Z,6.52
2019-01-17T03:44:44.709Z,6.53
2019-01-17T03:45:44.709Z,6.59
2019-01-17T03:46:44.588Z,6.56
2019-01-17T03:47:44.584Z,6.57
2019-01-17T03:48:44.583Z,6.57
2019-01-17T03:49:44.474Z,6.50
2019-01-17T03:50:44.464Z,6.47
2019-01-17T03:51:44.350Z,6.60
2019-01-17T03:52:44.353Z,6.53
2019-01-17T03:53:44.343Z,6.52
2019-01-17T03:54:51.263Z,6.54
2019-01-17T03:55:44.220Z,6.56
2019-01-17T03:56:44.102Z,6.52
2019-01-17T03:57:44.102Z,6.52
2019-01-17T03:58:44.072Z,6.50
2019-01-17T03:59:43.978Z,6.50
2019-01-17T04:00:43.982Z,6.53
2019-01-17T04:01:43.860Z,6.53
2019-01-17T04:02:43.860Z,6.57
2019-01-17T04:03:43.823Z,6.50
2019-01-17T04:04:43.741Z,6.54
2019-01-17T04:05:43.739Z,6.56
2019-01-17T04:06:43.632Z,6.54
2019-01-17T04:07:43.626Z,6.52
2019-01-17T04:08:43.501Z,6.52
2019-01-17T04:09:43.503Z,6.49
2019-01-17T04:10:43.500Z,6.50
2019-01-17T04:11:43.378Z,6.54
2019-01-17T04:12:43.382Z,6.52
2019-01-17T04:13:43.258Z,6.52
2019-01-17T04:14:43.257Z,6.59
2019-01-17T04:15:43.257Z,6.54
2019-01-17T04:16:43.138Z,6.57
2019-01-17T04:17:43.135Z,6.54
2019-01-17T04:18:43.017Z,6.60
2019-01-17T04:19:43.016Z,6.53
2019-01-17T04:20:43.014Z,6.57
2019-01-17T04:21:42.909Z,6.62
2019-01-17T04:22:42.894Z,6.60
2019-01-17T04:23:42.774Z,6.59
2019-01-17T04:24:42.779Z,6.60
2019-01-17T04:25:42.736Z,6.54
2019-01-17T04:26:42.656Z,6.59
2019-01-17T04:27:42.657Z,6.53
2019-01-17T04:28:42.536Z,6.53
2019-01-17T04:29:42.534Z,6.52
2019-01-17T04:30:42.411Z,6.53
2019-01-17T04:31:42.425Z,6.56
2019-01-17T04:32:42.413Z,6.49
2019-01-17T04:33:42.294Z,6.52
2019-01-17T04:34:42.298Z,6.53
2019-01-17T04:35:42.170Z,6.53
2019-01-17T04:36:42.170Z,6.52
2019-01-17T04:37:42.173Z,6.50
2019-01-17T04:38:42.059Z,6.56
2019-01-17T04:39:42.064Z,6.56
2019-01-17T04:40:41.942Z,6.54
2019-01-17T04:41:41.930Z,6.49
2019-01-17T04:42:41.931Z,6.54
2019-01-17T04:43:41.811Z,6.52
2019-01-17T04:44:41.811Z,6.53
2019-01-17T04:45:41.691Z,6.57
2019-01-17T04:46:41.691Z,6.52
2019-01-17T04:47:41.692Z,6.59
2019-01-17T04:48:41.574Z,6.57
2019-01-17T04:49:41.570Z,6.53
2019-01-17T04:50:41.449Z,6.49
2019-01-17T04:51:41.452Z,6.59
2019-01-17T04:52:41.449Z,6.50
2019-01-17T04:53:41.329Z,6.53
2019-01-17T04:54:41.335Z,6.52
2019-01-17T04:55:41.211Z,6.60
2019-01-17T04:56:41.218Z,6.52
2019-01-17T04:57:41.087Z,6.52
2019-01-17T04:58:41.090Z,6.53
2019-01-17T04:59:41.088Z,6.56
2019-01-17T05:00:40.974Z,6.52
2019-01-17T05:01:40.970Z,6.54
2019-01-17T05:02:40.847Z,6.53
2019-01-17T05:03:40.848Z,6.47
2019-01-17T05:04:40.849Z,6.52
2019-01-17T05:05:40.726Z,6.56
2019-01-17T05:06:40.727Z,6.50
2019-01-17T05:07:40.609Z,6.47
2019-01-17T05:08:40.609Z,6.50
2019-01-17T05:09:40.611Z,6.53
2019-01-17T05:10:40.493Z,6.56
2019-01-17T05:11:40.486Z,6.56
2019-01-17T05:12:40.426Z,6.53
2019-01-17T05:13:40.450Z,6.57
2019-01-17T05:14:40.366Z,6.50
2019-01-17T05:15:40.250Z,6.52
2019-01-17T05:16:40.246Z,6.56
2019-01-17T05:17:40.126Z,6.60
2019-01-17T05:18:40.132Z,6.46
2019-01-17T05:19:40.131Z,6.52
2019-01-17T05:20:40.015Z,6.49
2019-01-17T05:21:40.009Z,6.52
2019-01-17T05:22:39.894Z,6.52
2019-01-17T05:23:39.940Z,6.54
2019-01-17T05:24:39.884Z,6.52
2019-01-17T05:25:39.769Z,6.49
2019-01-17T05:26:39.764Z,6.53
2019-01-17T05:27:39.647Z,6.60
2019-01-17T05:28:39.642Z,6.57
2019-01-17T05:29:39.523Z,6.57
2019-01-17T05:30:39.521Z,6.60
2019-01-17T05:31:39.522Z,6.70
2019-01-17T05:32:39.399Z,6.65
2019-01-17T05:33:39.401Z,6.64
2019-01-17T05:34:39.866Z,6.67
2019-01-17T05:35:39.288Z,6.68
2019-01-17T05:36:39.285Z,6.62
2019-01-17T05:37:39.159Z,6.67
2019-01-17T05:38:39.170Z,6.71
2019-01-17T05:39:39.039Z,6.68
2019-01-17T05:40:39.047Z,6.70
2019-01-17T05:41:39.119Z,6.68
2019-01-17T05:42:38.921Z,6.67
2019-01-17T05:43:38.923Z,6.71
2019-01-17T05:44:38.804Z,6.68
2019-01-17T05:45:38.799Z,6.68
2019-01-17T05:46:38.802Z,6.68
2019-01-17T05:47:38.677Z,6.70
2019-01-17T05:48:38.679Z,6.65
2019-01-17T05:49:38.558Z,6.74
2019-01-17T05:50:38.560Z,6.74
2019-01-17T05:51:38.558Z,6.75
2019-01-17T05:52:38.438Z,6.68
2019-01-17T05:53:38.434Z,6.70
2019-01-17T05:54:38.313Z,6.65
2019-01-17T05:55:38.317Z,6.65
2019-01-17T05:56:38.279Z,6.74
2019-01-17T05:57:38.201Z,6.72
2019-01-17T05:58:38.199Z,6.72
2019-01-17T05:59:38.073Z,6.75
2019-01-17T06:00:38.078Z,6.71
2019-01-17T06:01:37.959Z,6.70
2019-01-17T06:02:37.956Z,6.72
2019-01-17T06:03:37.959Z,6.78
2019-01-17T06:04:37.835Z,6.71
2019-01-17T06:05:37.845Z,6.71
2019-01-17T06:06:37.715Z,6.70
2019-01-17T06:07:37.713Z,6.71
2019-01-17T06:08:37.713Z,6.70
2019-01-17T06:09:37.592Z,6.71
2019-01-17T06:10:37.593Z,6.75
2019-01-17T06:11:37.470Z,6.70
2019-01-17T06:12:37.481Z,6.71
2019-01-17T06:13:37.471Z,6.71
2019-01-17T06:14:37.353Z,6.71
2019-01-17T06:15:37.349Z,6.77
2019-01-17T06:16:37.231Z,6.78
2019-01-17T06:17:37.230Z,6.74
2019-01-17T06:18:37.271Z,6.75
2019-01-17T06:19:37.118Z,6.68
2019-01-17T06:20:37.113Z,6.72
2019-01-17T06:21:36.993Z,6.70
2019-01-17T06:22:36.989Z,6.70
2019-01-17T06:23:36.951Z,6.71
2019-01-17T06:24:36.874Z,6.67
2019-01-17T06:25:36.872Z,6.74
2019-01-17T06:26:36.747Z,6.75
2019-01-17T06:27:36.751Z,6.67
2019-01-17T06:28:36.640Z,6.72
2019-01-17T06:29:36.628Z,6.75
2019-01-17T06:30:36.628Z,6.71
2019-01-17T06:31:36.508Z,6.68
2019-01-17T06:32:36.509Z,6.68
2019-01-17T06:33:36.390Z,6.67
2019-01-17T06:34:36.387Z,6.68
2019-01-17T06:35:36.386Z,6.62
2019-01-17T06:36:36.268Z,6.65
2019-01-17T06:37:36.266Z,6.64
2019-01-17T06:38:36.148Z,6.67
2019-01-17T06:39:36.144Z,6.71
2019-01-17T06:40:36.146Z,6.67
2019-01-17T06:41:36.022Z,6.72
2019-01-17T06:42:36.025Z,6.64
2019-01-17T06:43:35.905Z,6.60
2019-01-17T06:44:35.906Z,6.57
2019-01-17T06:45:35.911Z,6.57
2019-01-17T06:46:35.788Z,6.60
2019-01-17T06:47:35.783Z,6.57
2019-01-17T06:48:35.668Z,6.65
2019-01-17T06:49:35.664Z,6.52
2019-01-17T06:50:35.663Z,6.60
2019-01-17T06:51:35.543Z,6.57
2019-01-17T06:52:35.543Z,6.57
2019-01-17T06:53:35.426Z,6.56
2019-01-17T06:54:35.426Z,6.60
2019-01-17T06:55:35.384Z,6.56
2019-01-17T06:56:35.305Z,6.53
2019-01-17T06:57:35.304Z,6.59
2019-01-17T06:58:35.184Z,6.64
2019-01-17T06:59:35.180Z,6.54
2019-01-17T07:00:35.068Z,6.64
2019-01-17T07:01:35.071Z,6.54
2019-01-17T07:02:35.065Z,6.59
2019-01-17T07:03:34.941Z,6.74
2019-01-17T07:04:34.951Z,6.71
2019-01-17T07:05:34.831Z,6.62
2019-01-17T07:06:34.826Z,6.65
2019-01-17T07:07:34.820Z,6.67
2019-01-17T07:08:34.697Z,6.67
2019-01-17T07:09:34.699Z,6.67
2019-01-17T07:10:34.580Z,6.75
2019-01-17T07:11:34.579Z,6.74
2019-01-17T07:12:34.586Z,6.74
2019-01-17T07:13:34.464Z,6.82
2019-01-17T07:14:34.456Z,6.85
2019-01-17T07:15:34.342Z,6.85
2019-01-17T07:16:34.343Z,6.77
2019-01-17T07:17:34.341Z,6.85
2019-01-17T07:18:34.237Z,6.78
2019-01-17T07:19:34.217Z,6.85
2019-01-17T07:20:34.104Z,6.78
2019-01-17T07:21:34.178Z,6.86
2019-01-17T07:22:34.058Z,6.77
2019-01-17T07:23:33.977Z,6.77
2019-01-17T07:24:33.978Z,6.77
2019-01-17T07:25:33.853Z,6.71
2019-01-17T07:26:33.890Z,6.77
2019-01-17T07:27:33.734Z,6.67
2019-01-17T07:28:33.735Z,6.80
2019-01-17T07:29:33.747Z,6.67
2019-01-17T07:30:33.613Z,6.72
2019-01-17T07:31:33.613Z,6.77
2019-01-17T07:32:33.491Z,6.71
2019-01-17T07:33:33.491Z,6.70
2019-01-17T07:34:33.497Z,6.67
2019-01-17T07:35:33.378Z,6.71
2019-01-17T07:36:33.373Z,6.70
2019-01-17T07:37:33.260Z,6.62
2019-01-17T07:38:33.256Z,6.70
2019-01-17T07:39:33.250Z,6.65
2019-01-17T07:40:33.133Z,6.71
2019-01-17T07:41:33.132Z,6.64
2019-01-17T07:42:33.009Z,6.71
2019-01-17T07:43:33.009Z,6.60
2019-01-17T07:44:33.008Z,6.68
2019-01-17T07:45:32.892Z,6.54
2019-01-17T07:46:32.892Z,6.53
2019-01-17T07:47:32.771Z,6.53
2019-01-17T07:48:32.775Z,6.53
2019-01-17T07:49:32.773Z,6.57
2019-01-17T07:50:32.660Z,6.59
2019-01-17T07:51:32.649Z,6.65
2019-01-17T07:52:32.529Z,6.54
2019-01-17T07:53:32.530Z,6.65
2019-01-17T07:54:32.410Z,6.64
2019-01-17T07:55:32.408Z,6.64
2019-01-17T07:56:32.406Z,6.62
2019-01-17T07:57:32.294Z,6.64
2019-01-17T07:58:32.288Z,6.70
2019-01-17T07:59:32.165Z,6.72
2019-01-17T08:00:32.165Z,6.70
2019-01-17T08:01:32.177Z,6.65
2019-01-17T08:02:32.047Z,6.74
2019-01-17T08:03:32.049Z,6.68
2019-01-17T08:04:31.929Z,6.65
2019-01-17T08:05:31.929Z,6.71
2019-01-17T08:06:31.926Z,6.75
2019-01-17T08:07:31.803Z,6.70
2019-01-17T08:08:31.807Z,6.72
2019-01-17T08:09:31.810Z,6.67
2019-01-17T08:10:31.692Z,6.70
2019-01-17T08:11:31.765Z,6.71
2019-01-17T08:12:31.668Z,6.71
2019-01-17T08:13:31.766Z,6.62
2019-01-17T08:14:31.445Z,6.67
2019-01-17T08:15:31.447Z,6.68
2019-01-17T08:16:31.444Z,6.68
2019-01-17T08:17:31.323Z,6.68
2019-01-17T08:18:31.325Z,6.65
2019-01-17T08:19:31.203Z,6.70
2019-01-17T08:20:31.202Z,6.59
2019-01-17T08:21:31.165Z,6.64
2019-01-17T08:22:31.085Z,6.68
2019-01-17T08:23:34.584Z,6.72
2019-01-17T08:24:30.962Z,6.67
2019-01-17T08:25:30.961Z,6.67
2019-01-17T08:26:30.955Z,6.67
2019-01-17T08:27:30.839Z,6.78
2019-01-17T08:28:30.842Z,6.71
2019-01-17T08:29:30.722Z,6.65
2019-01-17T08:30:30.729Z,6.67
2019-01-17T08:31:30.604Z,6.67
2019-01-17T08:32:30.600Z,6.68
2019-01-17T08:33:30.600Z,6.67
2019-01-17T08:34:30.481Z,6.67
2019-01-17T08:35:30.478Z,6.67
2019-01-17T08:36:30.358Z,6.74
2019-01-17T08:37:30.362Z,6.72
2019-01-17T08:38:30.360Z,6.72
2019-01-17T08:39:30.246Z,6.75
2019-01-17T08:40:30.236Z,6.80
2019-01-17T08:41:30.120Z,6.85
2019-01-17T08:42:30.115Z,6.90
2019-01-17T08:43:30.117Z,6.90
2019-01-17T08:44:30.003Z,6.96
2019-01-17T08:45:29.997Z,6.96
2019-01-17T08:46:29.877Z,6.90
2019-01-17T08:47:29.876Z,6.92
2019-01-17T08:48:29.877Z,6.89
2019-01-17T08:49:29.759Z,6.97
2019-01-17T08:50:29.753Z,7.05
2019-01-17T08:51:29.638Z,7.07
2019-01-17T08:52:29.636Z,7.03
2019-01-17T08:53:29.632Z,7.01
2019-01-17T08:54:29.513Z,7.01
2019-01-17T08:55:29.512Z,7.11
2019-01-17T08:56:29.395Z,7.15
2019-01-17T08:57:29.396Z,7.13
2019-01-17T08:58:29.287Z,7.18
2019-01-17T08:59:29.274Z,7.13
2019-01-17T09:00:29.272Z,7.18
2019-01-17T09:01:29.154Z,7.10
2019-01-17T09:02:29.160Z,7.15
2019-01-17T09:03:29.043Z,7.23
2019-01-17T09:04:29.031Z,7.31
2019-01-17T09:05:29.040Z,7.22
2019-01-17T09:06:28.912Z,7.36
2019-01-17T09:07:28.920Z,7.31
2019-01-17T09:08:28.794Z,7.26
2019-01-17T09:09:28.791Z,7.31
2019-01-17T09:10:28.795Z,7.37
2019-01-17T09:11:28.672Z,7.39
2019-01-17T09:12:28.676Z,7.33
2019-01-17T09:13:28.552Z,7.28
2019-01-17T09:14:28.554Z,7.37
2019-01-17T09:15:28.555Z,7.33
2019-01-17T09:16:28.428Z,7.31
2019-01-17T09:17:28.437Z,7.36
2019-01-17T09:18:28.316Z,7.31
2019-01-17T09:19:28.314Z,7.32
2019-01-17T09:20:28.308Z,7.33
2019-01-17T09:21:28.189Z,7.43
2019-01-17T09:22:28.186Z,7.44
2019-01-17T09:23:28.082Z,7.43
2019-01-17T09:24:28.067Z,7.51
2019-01-17T09:25:28.074Z,7.50
2019-01-17T09:26:27.948Z,7.55
2019-01-17T09:27:27.944Z,7.56
2019-01-17T09:28:27.828Z,7.51
2019-01-17T09:29:27.844Z,7.55
2019-01-17T09:30:27.828Z,7.58
2019-01-17T09:31:27.706Z,7.59
2019-01-17T09:32:27.718Z,7.59
2019-01-17T09:33:27.585Z,7.62
2019-01-17T09:34:27.592Z,7.62
2019-01-17T09:35:27.546Z,7.64
2019-01-17T09:36:27.463Z,7.67
2019-01-17T09:37:27.469Z,7.58
2019-01-17T09:38:27.344Z,7.58
2019-01-17T09:39:27.342Z,7.53
2019-01-17T09:40:27.304Z,7.64
2019-01-17T09:41:27.222Z,7.59
2019-01-17T09:42:27.231Z,7.56
2019-01-17T09:43:27.102Z,7.58
2019-01-17T09:44:27.108Z,7.70
2019-01-17T09:45:26.982Z,7.61
2019-01-17T09:46:26.997Z,7.66
2019-01-17T09:47:26.987Z,7.64
2019-01-17T09:48:26.863Z,7.59
2019-01-17T09:49:26.861Z,7.62
2019-01-17T09:50:26.740Z,7.66
2019-01-17T09:51:26.742Z,7.55
2019-01-17T09:52:26.748Z,7.56
2019-01-17T09:53:26.619Z,7.47
2019-01-17T09:54:26.623Z,7.47
2019-01-17T09:55:26.504Z,7.48
2019-01-17T09:56:26.506Z,7.43
2019-01-17T09:57:26.507Z,7.47
2019-01-17T09:58:26.380Z,7.37
2019-01-17T09:59:26.384Z,7.28
2019-01-17T10:00:26.266Z,7.31
2019-01-17T10:01:26.261Z,7.21
2019-01-17T10:02:26.257Z,7.28
2019-01-17T10:03:26.139Z,7.15
2019-01-17T10:04:26.713Z,7.08
2019-01-17T10:05:28.178Z,7.04
2019-01-17T10:06:26.021Z,7.00
2019-01-17T10:07:26.021Z,6.89
2019-01-17T10:08:25.901Z,6.85
2019-01-17T10:09:25.903Z,6.72
2019-01-17T10:10:25.781Z,6.70
2019-01-17T10:11:25.784Z,6.68
2019-01-17T10:12:25.779Z,6.57
2019-01-17T10:13:31.910Z,6.67
2019-01-17T10:14:25.671Z,6.50
2019-01-17T10:15:25.537Z,6.54
2019-01-17T10:16:25.535Z,6.54
2019-01-17T10:17:25.547Z,6.41
2019-01-17T10:18:25.415Z,6.35
2019-01-17T10:19:25.415Z,6.34
2019-01-17T10:20:25.294Z,6.32
2019-01-17T10:21:25.295Z,6.22
2019-01-17T10:22:25.292Z,6.16
2019-01-17T10:23:25.173Z,6.13
2019-01-17T10:24:25.247Z,6.15
2019-01-17T10:25:25.052Z,6.12
2019-01-17T10:26:25.055Z,6.09
2019-01-17T10:27:25.049Z,6.05
2019-01-17T10:28:24.934Z,6.07
2019-01-17T10:29:24.931Z,5.99
2019-01-17T10:30:24.812Z,5.99
2019-01-17T10:31:24.811Z,6.01
2019-01-17T10:32:24.693Z,6.02
2019-01-17T10:33:24.692Z,5.94
2019-01-17T10:34:24.694Z,5.87
2019-01-17T10:35:24.574Z,5.91
2019-01-17T10:36:24.574Z,5.88
2019-01-17T10:37:24.452Z,5.90
2019-01-17T10:38:24.451Z,5.84
2019-01-17T10:39:24.453Z,5.76
2019-01-17T10:40:24.332Z,5.74
2019-01-17T10:41:24.330Z,5.70
2019-01-17T10:42:24.209Z,5.76
2019-01-17T10:43:24.227Z,5.73
2019-01-17T10:44:24.210Z,5.76
2019-01-17T10:45:24.094Z,5.67
2019-01-17T10:46:24.089Z,5.62
2019-01-17T10:47:23.969Z,5.70
2019-01-17T10:48:23.968Z,5.64
2019-01-17T10:49:23.933Z,5.56
2019-01-17T10:50:23.850Z,5.64
2019-01-17T10:51:23.848Z,5.65
2019-01-17T10:52:23.729Z,5.58
2019-01-17T10:53:23.741Z,5.55
2019-01-17T10:54:23.606Z,5.56
2019-01-17T10:55:23.607Z,5.59
2019-01-17T10:56:27.772Z,5.58
2019-01-17T10:57:23.486Z,5.51
2019-01-17T10:58:23.483Z,5.49
2019-01-17T10:59:23.366Z,5.47
2019-01-17T11:00:23.364Z,5.56
2019-01-17T11:01:23.363Z,5.58
2019-01-17T11:02:23.255Z,5.54
2019-01-17T11:03:23.255Z,5.52
2019-01-17T11:04:23.135Z,5.52
2019-01-17T11:05:23.133Z,5.41
2019-01-17T11:06:23.121Z,5.46
2019-01-17T11:07:23.003Z,5.40
2019-01-17T11:08:23.004Z,5.40
2019-01-17T11:09:22.888Z,5.36
2019-01-17T11:10:22.892Z,5.37
2019-01-17T11:11:22.764Z,5.37
2019-01-17T11:12:22.768Z,5.38
2019-01-17T11:13:22.768Z,5.29
2019-01-17T11:14:22.641Z,5.36
2019-01-17T11:15:22.644Z,5.40
2019-01-17T11:16:22.520Z,5.36
2019-01-17T11:17:22.534Z,5.36
2019-01-17T11:18:22.529Z,5.37
2019-01-17T11:19:22.402Z,5.36
2019-01-17T11:20:22.404Z,5.31
2019-01-17T11:21:22.282Z,5.38
2019-01-17T11:22:22.279Z,5.37
2019-01-17T11:23:22.274Z,5.47
2019-01-17T11:24:22.159Z,5.43
2019-01-17T11:25:22.159Z,5.31
2019-01-17T11:26:22.041Z,5.38
2019-01-17T11:27:22.043Z,5.34
2019-01-17T11:28:21.921Z,5.41
2019-01-17T11:29:21.918Z,5.41
2019-01-17T11:30:21.919Z,5.41
2019-01-17T11:31:21.797Z,5.47
2019-01-17T11:32:21.804Z,5.44
2019-01-17T11:33:21.682Z,5.36
2019-01-17T11:34:21.684Z,5.44
2019-01-17T11:35:21.683Z,5.41
2019-01-17T11:36:21.558Z,5.47
2019-01-17T11:37:21.558Z,5.36
2019-01-17T11:38:21.437Z,5.37
2019-01-17T11:39:21.437Z,5.40
2019-01-17T11:40:21.440Z,5.38
2019-01-17T11:41:21.320Z,5.38
2019-01-17T11:42:21.315Z,5.44
2019-01-17T11:43:21.194Z,5.38
2019-01-17T11:44:21.203Z,5.44
2019-01-17T11:45:21.194Z,5.41
2019-01-17T11:46:21.074Z,5.36
2019-01-17T11:47:21.078Z,5.40
2019-01-17T11:48:20.966Z,5.43
2019-01-17T11:49:20.956Z,5.40
2019-01-17T11:50:20.835Z,5.40
2019-01-17T11:51:20.835Z,5.40
2019-01-17T11:52:20.844Z,5.41
2019-01-17T11:53:20.714Z,5.38
2019-01-17T11:54:20.719Z,5.36
2019-01-17T11:55:20.597Z,5.41
2019-01-17T11:56:20.595Z,5.36
2019-01-17T11:57:20.590Z,5.38
2019-01-17T11:58:20.475Z,5.31
2019-01-17T11:59:20.471Z,5.40
2019-01-17T12:00:20.353Z,5.41
2019-01-17T12:01:20.352Z,5.43
2019-01-17T12:02:20.230Z,5.47
2019-01-17T12:03:20.232Z,5.46
2019-01-17T12:04:20.234Z,5.40
2019-01-17T12:05:20.112Z,5.43
2019-01-17T12:06:20.115Z,5.41
2019-01-17T12:07:19.988Z,5.40
2019-01-17T12:08:19.989Z,5.51
2019-01-17T12:09:19.989Z,5.51
2019-01-17T12:10:19.869Z,5.51
2019-01-17T12:11:19.868Z,5.55
2019-01-17T12:12:19.747Z,5.54
2019-01-17T12:13:19.750Z,5.52
2019-01-17T12:14:19.755Z,5.61
2019-01-17T12:15:19.628Z,5.56
2019-01-17T12:16:19.644Z,5.54
2019-01-17T12:17:19.509Z,5.52
2019-01-17T12:18:19.513Z,5.56
2019-01-17T12:19:19.394Z,5.49
2019-01-17T12:20:19.388Z,5.55
2019-01-17T12:21:19.388Z,5.55
2019-01-17T12:22:19.269Z,5.59
2019-01-17T12:23:19.265Z,5.54
2019-01-17T12:24:19.155Z,5.56
2019-01-17T12:25:19.145Z,5.58
2019-01-17T12:26:19.151Z,5.58
2019-01-17T12:27:19.035Z,5.61
2019-01-17T12:28:19.029Z,5.55
2019-01-17T12:29:18.906Z,5.52
2019-01-17T12:30:18.907Z,5.46
2019-01-17T12:31:18.908Z,5.52
2019-01-17T12:32:18.786Z,5.41
2019-01-17T12:33:18.823Z,5.52
2019-01-17T12:34:18.662Z,5.49
2019-01-17T12:35:18.666Z,5.55
2019-01-17T12:36:18.625Z,5.43
2019-01-17T12:37:18.564Z,5.49
2019-01-17T12:38:18.550Z,5.55
2019-01-17T12:39:18.422Z,5.55
2019-01-17T12:40:18.424Z,5.40
2019-01-17T12:41:18.304Z,5.44
2019-01-17T12:42:18.302Z,5.43
2019-01-17T12:43:18.303Z,5.38
2019-01-17T12:44:18.191Z,5.40
2019-01-17T12:45:18.185Z,5.41
2019-01-17T12:46:18.062Z,5.44
2019-01-17T12:47:18.069Z,5.40
2019-01-17T12:48:18.062Z,5.38
2019-01-17T12:49:17.948Z,5.37
2019-01-17T12:50:17.949Z,5.43
2019-01-17T12:51:17.826Z,5.43
2019-01-17T12:52:17.827Z,5.36
2019-01-17T12:53:17.782Z,5.37
2019-01-17T12:54:17.700Z,5.38
2019-01-17T12:55:17.698Z,5.40
2019-01-17T12:56:17.579Z,5.41
2019-01-17T12:57:17.579Z,5.41
2019-01-17T12:58:17.468Z,5.37
2019-01-17T12:59:17.461Z,5.37
2019-01-17T13:00:17.460Z,5.43
2019-01-17T13:01:17.340Z,5.33
2019-01-17T13:02:17.343Z,5.41
2019-01-17T13:03:17.224Z,5.37
2019-01-17T13:04:17.219Z,5.41
2019-01-17T13:05:17.225Z,5.33
2019-01-17T13:06:17.095Z,5.36
2019-01-17T13:07:17.097Z,5.41
2019-01-17T13:08:16.978Z,5.44
2019-01-17T13:09:16.978Z,5.41
2019-01-17T13:10:16.940Z,5.43
2019-01-17T13:11:16.858Z,5.40
2019-01-17T13:12:16.854Z,5.43
2019-01-17T13:13:16.747Z,5.41
2019-01-17T13:14:16.816Z,5.38
2019-01-17T13:15:16.775Z,5.38
2019-01-17T13:16:16.731Z,5.40
2019-01-17T13:17:16.740Z,5.40
2019-01-17T13:18:16.499Z,5.38